sensor_id;sensor_type;location;lat;lon;timestamp;pressure;altitude;pressure_sealevel;temperature;humidity
36630;BME280;36256;42.154;23.002;2023-06-22T00:01:18;97518.47;;;21.06;94.98
36630;BME280;36256;42.154;23.002;2023-06-22T00:03:46;97534.31;;;21.07;96.08
36630;BME280;36256;42.154;23.002;2023-06-22T00:06:13;97532.47;;;21.04;97.15
36630;BME280;36256;42.154;23.002;2023-06-22T00:08:40;97535.03;;;21.02;96.91
36630;BME280;36256;42.154;23.002;2023-06-22T00:11:07;97532.44;;;20.98;97.79
36630;BME280;36256;42.154;23.002;2023-06-22T00:13:34;97537.16;;;21.07;96.91
36630;BME280;36256;42.154;23.002;2023-06-22T00:16:00;97537.16;;;21.18;98.26
36630;BME280;36256;42.154;23.002;2023-06-22T00:18:27;97531.69;;;21.26;98.72
36630;BME280;36256;42.154;23.002;2023-06-22T00:20:57;97525.22;;;21.31;98.53
36630;BME280;36256;42.154;23.002;2023-06-22T00:23:25;97505.47;;;21.33;97.24
36630;BME280;36256;42.154;23.002;2023-06-22T00:25:52;97521.84;;;21.16;93.95
36630;BME280;36256;42.154;23.002;2023-06-22T00:28:19;97525.16;;;20.81;93.85
36630;BME280;36256;42.154;23.002;2023-06-22T00:30:46;97525.19;;;20.92;93.21
36630;BME280;36256;42.154;23.002;2023-06-22T00:33:13;97519.72;;;20.99;94.69
36630;BME280;36256;42.154;23.002;2023-06-22T00:35:39;97518.97;;;20.99;94.28
36630;BME280;36256;42.154;23.002;2023-06-22T00:38:07;97529.34;;;21.02;93.49
36630;BME280;36256;42.154;23.002;2023-06-22T00:40:35;97526.72;;;20.93;91.16
36630;BME280;36256;42.154;23.002;2023-06-22T00:43:02;97512.47;;;20.76;93.12
36630;BME280;36256;42.154;23.002;2023-06-22T00:45:29;97518.72;;;20.86;93.80
36630;BME280;36256;42.154;23.002;2023-06-22T00:47:57;97521.56;;;20.86;93.84
36630;BME280;36256;42.154;23.002;2023-06-22T00:50:26;97521.56;;;20.86;91.74
36630;BME280;36256;42.154;23.002;2023-06-22T00:52:56;97512.97;;;20.80;92.82
36630;BME280;36256;42.154;23.002;2023-06-22T00:55:23;97511.16;;;20.72;93.67
36630;BME280;36256;42.154;23.002;2023-06-22T00:57:52;97514.00;;;20.72;96.09
36630;BME280;36256;42.154;23.002;2023-06-22T01:00:24;97522.03;;;20.68;97.44
36630;BME280;36256;42.154;23.002;2023-06-22T01:02:52;97516.34;;;20.68;97.30
36630;BME280;36256;42.154;23.002;2023-06-22T01:05:21;97521.03;;;20.71;96.10
36630;BME280;36256;42.154;23.002;2023-06-22T01:10:45;97525.69;;;20.63;97.47
36630;BME280;36256;42.154;23.002;2023-06-22T01:15:54;97519.13;;;20.34;99.94
36630;BME280;36256;42.154;23.002;2023-06-22T01:18:23;97527.94;;;20.31;96.93
36630;BME280;36256;42.154;23.002;2023-06-22T01:20:54;97537.78;;;20.24;95.38
36630;BME280;36256;42.154;23.002;2023-06-22T01:28:59;97532.25;;;20.15;96.86
36630;BME280;36256;42.154;23.002;2023-06-22T01:31:28;97542.06;;;20.03;98.03
36630;BME280;36256;42.154;23.002;2023-06-22T01:33:59;97539.47;;;20.05;98.08
36630;BME280;36256;42.154;23.002;2023-06-22T01:36:28;97540.50;;;20.02;99.31
36630;BME280;36256;42.154;23.002;2023-06-22T01:38:56;97534.78;;;20.02;98.51
36630;BME280;36256;42.154;23.002;2023-06-22T01:41:26;97533.25;;;20.01;98.47
36630;BME280;36256;42.154;23.002;2023-06-22T01:43:54;97532.72;;;19.97;99.10
36630;BME280;36256;42.154;23.002;2023-06-22T01:46:22;97537.13;;;19.98;98.75
36630;BME280;36256;42.154;23.002;2023-06-22T01:48:50;97535.84;;;19.99;98.79
36630;BME280;36256;42.154;23.002;2023-06-22T01:51:17;97539.22;;;19.98;99.42
36630;BME280;36256;42.154;23.002;2023-06-22T01:53:44;97530.63;;;19.92;100.00
36630;BME280;36256;42.154;23.002;2023-06-22T01:56:10;97541.41;;;19.77;100.00
36630;BME280;36256;42.154;23.002;2023-06-22T01:58:59;97541.13;;;19.70;100.00
36630;BME280;36256;42.154;23.002;2023-06-22T02:01:31;97546.81;;;19.70;100.00
36630;BME280;36256;42.154;23.002;2023-06-22T02:04:06;97549.59;;;19.53;100.00
36630;BME280;36256;42.154;23.002;2023-06-22T02:06:39;97553.44;;;19.50;100.00
36630;BME280;36256;42.154;23.002;2023-06-22T02:09:12;97541.91;;;19.33;100.00
36630;BME280;36256;42.154;23.002;2023-06-22T02:11:42;97560.78;;;19.31;100.00
36630;BME280;36256;42.154;23.002;2023-06-22T02:14:12;97563.72;;;19.42;100.00
36630;BME280;36256;42.154;23.002;2023-06-22T02:16:40;97561.81;;;19.28;100.00
36630;BME280;36256;42.154;23.002;2023-06-22T02:19:08;97569.56;;;19.33;100.00
36630;BME280;36256;42.154;23.002;2023-06-22T02:21:35;97550.88;;;19.21;100.00
36630;BME280;36256;42.154;23.002;2023-06-22T02:24:01;97566.47;;;19.31;100.00
36630;BME280;36256;42.154;23.002;2023-06-22T02:26:28;97571.59;;;19.27;100.00
36630;BME280;36256;42.154;23.002;2023-06-22T02:28:56;97567.41;;;19.17;100.00
36630;BME280;36256;42.154;23.002;2023-06-22T02:31:22;97566.06;;;19.12;100.00
36630;BME280;36256;42.154;23.002;2023-06-22T02:33:58;97576.34;;;19.04;100.00
36630;BME280;36256;42.154;23.002;2023-06-22T02:36:25;97573.81;;;19.12;100.00
36630;BME280;36256;42.154;23.002;2023-06-22T02:38:54;97558.66;;;18.95;100.00
36630;BME280;36256;42.154;23.002;2023-06-22T02:41:22;97564.19;;;19.04;100.00
36630;BME280;36256;42.154;23.002;2023-06-22T02:43:49;97545.91;;;18.85;100.00
36630;BME280;36256;42.154;23.002;2023-06-22T02:46:16;97567.00;;;18.98;100.00
36630;BME280;36256;42.154;23.002;2023-06-22T02:48:43;97565.75;;;19.05;100.00
36630;BME280;36256;42.154;23.002;2023-06-22T02:51:12;97566.19;;;18.98;100.00
36630;BME280;36256;42.154;23.002;2023-06-22T02:53:39;97570.31;;;18.97;100.00
36630;BME280;36256;42.154;23.002;2023-06-22T02:56:06;97574.19;;;18.94;100.00
36630;BME280;36256;42.154;23.002;2023-06-22T02:58:32;97578.41;;;18.78;100.00
36630;BME280;36256;42.154;23.002;2023-06-22T03:01:06;97581.78;;;18.76;100.00
36630;BME280;36256;42.154;23.002;2023-06-22T03:03:33;97584.06;;;18.72;100.00
36630;BME280;36256;42.154;23.002;2023-06-22T03:06:00;97577.53;;;18.66;100.00
36630;BME280;36256;42.154;23.002;2023-06-22T03:08:27;97576.75;;;18.66;100.00
36630;BME280;36256;42.154;23.002;2023-06-22T03:10:56;97579.56;;;18.60;100.00
36630;BME280;36256;42.154;23.002;2023-06-22T03:13:22;97587.56;;;18.42;100.00
36630;BME280;36256;42.154;23.002;2023-06-22T03:15:49;97593.19;;;18.36;100.00
36630;BME280;36256;42.154;23.002;2023-06-22T03:18:16;97598.88;;;18.36;100.00
36630;BME280;36256;42.154;23.002;2023-06-22T03:20:43;97599.16;;;18.38;100.00
36630;BME280;36256;42.154;23.002;2023-06-22T03:23:09;97598.19;;;18.41;100.00
36630;BME280;36256;42.154;23.002;2023-06-22T03:25:36;97595.00;;;18.54;100.00
36630;BME280;36256;42.154;23.002;2023-06-22T03:28:03;97597.28;;;18.50;100.00
36630;BME280;36256;42.154;23.002;2023-06-22T03:30:30;97599.59;;;18.51;100.00
36630;BME280;36256;42.154;23.002;2023-06-22T03:32:57;97580.34;;;18.41;100.00
36630;BME280;36256;42.154;23.002;2023-06-22T03:35:24;97612.38;;;18.61;100.00
36630;BME280;36256;42.154;23.002;2023-06-22T03:37:50;97617.63;;;18.68;100.00
36630;BME280;36256;42.154;23.002;2023-06-22T03:40:17;97619.63;;;18.62;100.00
36630;BME280;36256;42.154;23.002;2023-06-22T03:42:44;97621.97;;;18.64;100.00
36630;BME280;36256;42.154;23.002;2023-06-22T03:45:10;97631.00;;;18.62;100.00
36630;BME280;36256;42.154;23.002;2023-06-22T03:47:37;97639.28;;;18.66;100.00
36630;BME280;36256;42.154;23.002;2023-06-22T03:50:05;97631.03;;;18.68;100.00
36630;BME280;36256;42.154;23.002;2023-06-22T03:52:32;97633.66;;;18.71;100.00
36630;BME280;36256;42.154;23.002;2023-06-22T03:54:59;97643.88;;;18.84;100.00
36630;BME280;36256;42.154;23.002;2023-06-22T03:57:26;97643.16;;;18.89;100.00
36630;BME280;36256;42.154;23.002;2023-06-22T03:59:55;97650.97;;;18.94;100.00
36630;BME280;36256;42.154;23.002;2023-06-22T04:02:22;97638.56;;;18.97;100.00
36630;BME280;36256;42.154;23.002;2023-06-22T04:04:49;97632.44;;;19.04;100.00
36630;BME280;36256;42.154;23.002;2023-06-22T04:07:16;97649.28;;;19.07;100.00
36630;BME280;36256;42.154;23.002;2023-06-22T04:09:44;97647.22;;;19.08;100.00
36630;BME280;36256;42.154;23.002;2023-06-22T04:12:11;97644.38;;;19.08;100.00
36630;BME280;36256;42.154;23.002;2023-06-22T04:14:37;97643.81;;;19.04;100.00
36630;BME280;36256;42.154;23.002;2023-06-22T04:17:04;97662.91;;;18.98;100.00
36630;BME280;36256;42.154;23.002;2023-06-22T04:19:31;97648.50;;;19.07;100.00
36630;BME280;36256;42.154;23.002;2023-06-22T04:21:58;97653.72;;;19.14;100.00
36630;BME280;36256;42.154;23.002;2023-06-22T04:24:25;97644.38;;;19.08;100.00
36630;BME280;36256;42.154;23.002;2023-06-22T04:26:52;97646.50;;;19.13;100.00
36630;BME280;36256;42.154;23.002;2023-06-22T04:29:21;97659.41;;;19.14;100.00
36630;BME280;36256;42.154;23.002;2023-06-22T04:31:56;97652.47;;;19.15;100.00
36630;BME280;36256;42.154;23.002;2023-06-22T04:34:25;97648.03;;;19.14;100.00
36630;BME280;36256;42.154;23.002;2023-06-22T04:36:54;97650.59;;;19.12;100.00
36630;BME280;36256;42.154;23.002;2023-06-22T04:39:21;97659.41;;;19.14;100.00
36630;BME280;36256;42.154;23.002;2023-06-22T04:41:48;97663.69;;;19.24;100.00
36630;BME280;36256;42.154;23.002;2023-06-22T04:44:19;97650.84;;;19.34;100.00
36630;BME280;36256;42.154;23.002;2023-06-22T04:49:27;97647.13;;;19.53;100.00
36630;BME280;36256;42.154;23.002;2023-06-22T04:52:02;97653.94;;;19.62;100.00
36630;BME280;36256;42.154;23.002;2023-06-22T04:54:29;97658.31;;;19.63;100.00
36630;BME280;36256;42.154;23.002;2023-06-22T04:57:03;97656.34;;;19.74;100.00
36630;BME280;36256;42.154;23.002;2023-06-22T04:59:31;97654.59;;;19.82;100.00
36630;BME280;36256;42.154;23.002;2023-06-22T05:01:58;97646.13;;;19.93;100.00
36630;BME280;36256;42.154;23.002;2023-06-22T05:04:27;97644.59;;;19.98;100.00
36630;BME280;36256;42.154;23.002;2023-06-22T05:07:05;97646.88;;;19.94;99.43
36630;BME280;36256;42.154;23.002;2023-06-22T05:09:33;97648.47;;;20.00;100.00
36630;BME280;36256;42.154;23.002;2023-06-22T05:12:00;97664.03;;;20.05;100.00
36630;BME280;36256;42.154;23.002;2023-06-22T05:14:29;97657.59;;;20.10;99.29
36630;BME280;36256;42.154;23.002;2023-06-22T05:16:56;97650.84;;;20.07;99.34
36630;BME280;36256;42.154;23.002;2023-06-22T05:19:25;97663.03;;;20.08;98.78
36630;BME280;36256;42.154;23.002;2023-06-22T05:21:58;97659.75;;;20.20;98.76
36630;BME280;36256;42.154;23.002;2023-06-22T05:24:24;97664.69;;;20.25;97.26
36630;BME280;36256;42.154;23.002;2023-06-22T05:26:52;97665.00;;;20.33;97.73
36630;BME280;36256;42.154;23.002;2023-06-22T05:29:19;97671.50;;;20.39;98.83
36630;BME280;36256;42.154;23.002;2023-06-22T05:31:45;97678.84;;;20.57;97.92
36630;BME280;36256;42.154;23.002;2023-06-22T05:34:12;97676.03;;;20.68;98.77
36630;BME280;36256;42.154;23.002;2023-06-22T05:36:39;97666.25;;;20.80;97.17
36630;BME280;36256;42.154;23.002;2023-06-22T05:39:13;97668.34;;;20.96;97.77
36630;BME280;36256;42.154;23.002;2023-06-22T05:41:41;97667.34;;;21.10;97.25
36630;BME280;36256;42.154;23.002;2023-06-22T05:44:07;97675.97;;;21.38;96.34
36630;BME280;36256;42.154;23.002;2023-06-22T05:46:34;97672.59;;;21.72;94.39
36630;BME280;36256;42.154;23.002;2023-06-22T05:49:01;97674.63;;;22.22;94.41
36630;BME280;36256;42.154;23.002;2023-06-22T05:51:28;97673.69;;;22.71;89.93
36630;BME280;36256;42.154;23.002;2023-06-22T05:53:54;97673.06;;;23.41;86.69
36630;BME280;36256;42.154;23.002;2023-06-22T05:56:21;97670.31;;;24.19;83.69
36630;BME280;36256;42.154;23.002;2023-06-22T05:58:48;97671.84;;;24.68;77.39
36630;BME280;36256;42.154;23.002;2023-06-22T06:01:14;97668.28;;;25.37;76.34
36630;BME280;36256;42.154;23.002;2023-06-22T06:03:42;97667.81;;;25.70;70.20
36630;BME280;36256;42.154;23.002;2023-06-22T06:06:09;97669.50;;;26.10;69.33
36630;BME280;36256;42.154;23.002;2023-06-22T06:08:38;97670.47;;;26.13;69.20
36630;BME280;36256;42.154;23.002;2023-06-22T06:11:05;97676.84;;;26.77;68.33
36630;BME280;36256;42.154;23.002;2023-06-22T06:13:31;97670.19;;;26.82;64.63
36630;BME280;36256;42.154;23.002;2023-06-22T06:15:58;97665.72;;;27.07;63.23
36630;BME280;36256;42.154;23.002;2023-06-22T06:18:26;97660.44;;;27.32;62.77
36630;BME280;36256;42.154;23.002;2023-06-22T06:20:52;97656.97;;;27.46;61.45
36630;BME280;36256;42.154;23.002;2023-06-22T06:23:19;97654.56;;;27.37;61.62
36630;BME280;36256;42.154;23.002;2023-06-22T06:25:46;97648.06;;;27.78;60.36
36630;BME280;36256;42.154;23.002;2023-06-22T06:28:12;97656.53;;;28.17;58.66
36630;BME280;36256;42.154;23.002;2023-06-22T06:30:39;97649.03;;;28.22;57.52
36630;BME280;36256;42.154;23.002;2023-06-22T06:33:07;97655.03;;;28.24;57.81
36630;BME280;36256;42.154;23.002;2023-06-22T06:35:35;97647.88;;;27.96;58.44
36630;BME280;36256;42.154;23.002;2023-06-22T06:38:02;97645.63;;;28.03;58.75
36630;BME280;36256;42.154;23.002;2023-06-22T06:40:29;97644.66;;;28.00;57.63
36630;BME280;36256;42.154;23.002;2023-06-22T06:42:56;97636.75;;;27.59;58.79
36630;BME280;36256;42.154;23.002;2023-06-22T06:45:24;97641.59;;;27.85;58.53
36630;BME280;36256;42.154;23.002;2023-06-22T06:47:51;97636.34;;;27.96;58.28
36630;BME280;36256;42.154;23.002;2023-06-22T06:50:19;97647.22;;;28.11;56.43
36630;BME280;36256;42.154;23.002;2023-06-22T06:52:45;97638.97;;;27.94;58.00
36630;BME280;36256;42.154;23.002;2023-06-22T06:55:12;97645.47;;;27.87;59.97
36630;BME280;36256;42.154;23.002;2023-06-22T06:57:41;97635.97;;;28.21;60.00
36630;BME280;36256;42.154;23.002;2023-06-22T07:00:10;97625.84;;;28.35;58.37
36630;BME280;36256;42.154;23.002;2023-06-22T07:02:41;97631.59;;;28.91;58.45
36630;BME280;36256;42.154;23.002;2023-06-22T07:05:09;97636.78;;;29.28;58.02
36630;BME280;36256;42.154;23.002;2023-06-22T07:07:37;97623.69;;;29.42;57.24
36630;BME280;36256;42.154;23.002;2023-06-22T07:10:05;97607.31;;;29.37;54.49
36630;BME280;36256;42.154;23.002;2023-06-22T07:12:32;97619.44;;;29.28;57.23
36630;BME280;36256;42.154;23.002;2023-06-22T07:15:07;97620.41;;;29.31;54.57
36630;BME280;36256;42.154;23.002;2023-06-22T07:17:35;97616.78;;;29.45;55.46
36630;BME280;36256;42.154;23.002;2023-06-22T07:20:03;97616.78;;;29.53;56.45
36630;BME280;36256;42.154;23.002;2023-06-22T07:22:37;97605.78;;;29.52;55.14
36630;BME280;36256;42.154;23.002;2023-06-22T07:25:04;97613.69;;;29.43;57.22
36630;BME280;36256;42.154;23.002;2023-06-22T07:27:37;97619.88;;;29.47;58.93
36630;BME280;36256;42.154;23.002;2023-06-22T07:30:04;97622.13;;;29.26;55.74
36630;BME280;36256;42.154;23.002;2023-06-22T07:32:32;97611.69;;;29.23;57.37
36630;BME280;36256;42.154;23.002;2023-06-22T07:34:59;97620.59;;;29.40;60.80
36630;BME280;36256;42.154;23.002;2023-06-22T07:37:26;97614.03;;;29.32;59.64
36630;BME280;36256;42.154;23.002;2023-06-22T07:39:55;97607.47;;;29.24;59.59
36630;BME280;36256;42.154;23.002;2023-06-22T07:42:26;97598.66;;;29.37;60.29
36630;BME280;36256;42.154;23.002;2023-06-22T07:44:53;97600.13;;;29.23;59.11
36630;BME280;36256;42.154;23.002;2023-06-22T07:47:21;97588.56;;;29.16;58.50
36630;BME280;36256;42.154;23.002;2023-06-22T07:49:51;97594.38;;;29.31;59.69
36630;BME280;36256;42.154;23.002;2023-06-22T07:52:21;97587.03;;;29.22;58.53
36630;BME280;36256;42.154;23.002;2023-06-22T07:54:48;97580.78;;;29.03;58.94
36630;BME280;36256;42.154;23.002;2023-06-22T07:57:14;97576.38;;;29.10;59.27
36630;BME280;36256;42.154;23.002;2023-06-22T07:59:41;97591.97;;;29.07;59.49
36630;BME280;36256;42.154;23.002;2023-06-22T08:02:08;97588.25;;;28.55;59.74
36630;BME280;36256;42.154;23.002;2023-06-22T08:04:36;97583.16;;;28.41;60.83
36630;BME280;36256;42.154;23.002;2023-06-22T08:07:02;97588.94;;;28.69;59.53
36630;BME280;36256;42.154;23.002;2023-06-22T08:09:31;97586.56;;;29.03;59.21
36630;BME280;36256;42.154;23.002;2023-06-22T08:11:59;97590.53;;;29.21;61.41
36630;BME280;36256;42.154;23.002;2023-06-22T08:14:27;97581.69;;;29.41;58.42
36630;BME280;36256;42.154;23.002;2023-06-22T08:16:54;97575.50;;;29.22;58.76
36630;BME280;36256;42.154;23.002;2023-06-22T08:19:20;97573.88;;;29.14;60.21
36630;BME280;36256;42.154;23.002;2023-06-22T08:21:47;97562.88;;;28.97;60.88
36630;BME280;36256;42.154;23.002;2023-06-22T08:24:14;97588.13;;;29.12;60.31
36630;BME280;36256;42.154;23.002;2023-06-22T08:26:41;97587.50;;;28.98;63.14
36630;BME280;36256;42.154;23.002;2023-06-22T08:29:07;97572.13;;;29.03;59.56
36630;BME280;36256;42.154;23.002;2023-06-22T08:31:34;97576.81;;;29.21;58.76
36630;BME280;36256;42.154;23.002;2023-06-22T08:34:01;97576.91;;;28.93;58.87
36630;BME280;36256;42.154;23.002;2023-06-22T08:36:28;97568.50;;;29.10;60.70
36630;BME280;36256;42.154;23.002;2023-06-22T08:38:59;97571.81;;;29.29;60.89
36630;BME280;36256;42.154;23.002;2023-06-22T08:41:28;97570.50;;;29.45;61.36
36630;BME280;36256;42.154;23.002;2023-06-22T08:43:55;97558.72;;;29.28;59.49
36630;BME280;36256;42.154;23.002;2023-06-22T08:46:22;97552.75;;;29.34;61.37
36630;BME280;36256;42.154;23.002;2023-06-22T08:48:51;97555.47;;;29.39;60.10
36630;BME280;36256;42.154;23.002;2023-06-22T08:51:17;97549.72;;;29.55;59.86
36630;BME280;36256;42.154;23.002;2023-06-22T08:53:44;97543.13;;;29.39;58.00
36630;BME280;36256;42.154;23.002;2023-06-22T08:56:11;97534.66;;;29.48;57.23
36630;BME280;36256;42.154;23.002;2023-06-22T08:58:38;97537.75;;;29.66;58.21
36630;BME280;36256;42.154;23.002;2023-06-22T09:01:05;97524.63;;;29.72;56.78
36630;BME280;36256;42.154;23.002;2023-06-22T09:03:32;97526.22;;;29.88;57.27
36630;BME280;36256;42.154;23.002;2023-06-22T09:05:59;97520.59;;;29.98;57.33
36630;BME280;36256;42.154;23.002;2023-06-22T09:08:26;97530.81;;;29.99;56.33
36630;BME280;36256;42.154;23.002;2023-06-22T09:10:53;97527.34;;;30.00;63.72
36630;BME280;36256;42.154;23.002;2023-06-22T09:13:19;97525.78;;;30.07;59.10
36630;BME280;36256;42.154;23.002;2023-06-22T09:15:46;97516.50;;;30.23;57.73
36630;BME280;36256;42.154;23.002;2023-06-22T09:18:13;97512.63;;;30.29;55.65
36630;BME280;36256;42.154;23.002;2023-06-22T09:20:40;97512.22;;;30.40;56.32
36630;BME280;36256;42.154;23.002;2023-06-22T09:23:07;97506.41;;;30.40;57.38
36630;BME280;36256;42.154;23.002;2023-06-22T09:25:34;97500.38;;;30.60;56.67
36630;BME280;36256;42.154;23.002;2023-06-22T09:28:01;97503.59;;;30.72;58.22
36630;BME280;36256;42.154;23.002;2023-06-22T09:30:28;97496.19;;;30.86;55.78
36630;BME280;36256;42.154;23.002;2023-06-22T09:32:55;97501.19;;;30.93;56.34
36630;BME280;36256;42.154;23.002;2023-06-22T09:35:22;97483.81;;;30.93;51.89
36630;BME280;36256;42.154;23.002;2023-06-22T09:37:48;97491.81;;;31.10;49.98
36630;BME280;36256;42.154;23.002;2023-06-22T09:40:15;97480.53;;;31.21;50.93
36630;BME280;36256;42.154;23.002;2023-06-22T09:42:43;97485.13;;;31.24;49.37
36630;BME280;36256;42.154;23.002;2023-06-22T09:45:10;97472.91;;;31.33;45.03
36630;BME280;36256;42.154;23.002;2023-06-22T09:47:37;97471.53;;;31.34;47.35
36630;BME280;36256;42.154;23.002;2023-06-22T09:50:05;97456.47;;;31.36;46.31
36630;BME280;36256;42.154;23.002;2023-06-22T09:52:32;97473.59;;;31.49;50.14
36630;BME280;36256;42.154;23.002;2023-06-22T09:55:14;97478.38;;;31.54;46.31
36630;BME280;36256;42.154;23.002;2023-06-22T09:57:42;97468.50;;;31.57;46.78
36630;BME280;36256;42.154;23.002;2023-06-22T10:00:11;97482.69;;;31.70;50.94
36630;BME280;36256;42.154;23.002;2023-06-22T10:02:41;97462.00;;;31.66;47.26
36630;BME280;36256;42.154;23.002;2023-06-22T10:05:08;97463.72;;;31.69;48.82
36630;BME280;36256;42.154;23.002;2023-06-22T10:07:35;97443.69;;;31.63;44.52
36630;BME280;36256;42.154;23.002;2023-06-22T10:10:07;97452.13;;;31.69;45.76
36630;BME280;36256;42.154;23.002;2023-06-22T10:12:33;97447.00;;;31.77;46.30
36630;BME280;36256;42.154;23.002;2023-06-22T10:15:00;97445.66;;;31.78;46.61
36630;BME280;36256;42.154;23.002;2023-06-22T10:17:27;97459.75;;;31.82;48.00
36630;BME280;36256;42.154;23.002;2023-06-22T10:19:54;97452.16;;;31.86;46.34
36630;BME280;36256;42.154;23.002;2023-06-22T10:22:21;97446.69;;;31.90;47.27
36630;BME280;36256;42.154;23.002;2023-06-22T10:24:48;97441.44;;;31.96;46.55
36630;BME280;36256;42.154;23.002;2023-06-22T10:27:14;97436.13;;;32.02;48.81
36630;BME280;36256;42.154;23.002;2023-06-22T10:29:41;97430.50;;;32.04;48.34
36630;BME280;36256;42.154;23.002;2023-06-22T10:32:08;97432.72;;;31.96;47.82
36630;BME280;36256;42.154;23.002;2023-06-22T10:34:34;97431.59;;;32.09;46.90
36630;BME280;36256;42.154;23.002;2023-06-22T10:37:01;97429.13;;;32.05;46.46
36630;BME280;36256;42.154;23.002;2023-06-22T10:39:28;97437.19;;;32.14;47.44
36630;BME280;36256;42.154;23.002;2023-06-22T10:41:54;97429.97;;;32.15;46.37
36630;BME280;36256;42.154;23.002;2023-06-22T10:44:22;97425.03;;;32.25;46.56
36630;BME280;36256;42.154;23.002;2023-06-22T10:46:49;97433.56;;;32.23;46.50
36630;BME280;36256;42.154;23.002;2023-06-22T10:49:16;97425.28;;;32.20;45.01
36630;BME280;36256;42.154;23.002;2023-06-22T10:51:42;97414.78;;;32.07;46.40
36630;BME280;36256;42.154;23.002;2023-06-22T10:54:09;97412.22;;;31.94;44.85
36630;BME280;36256;42.154;23.002;2023-06-22T10:56:35;97415.31;;;31.96;46.72
36630;BME280;36256;42.154;23.002;2023-06-22T10:59:02;97404.47;;;31.97;45.04
36630;BME280;36256;42.154;23.002;2023-06-22T11:01:29;97399.44;;;31.97;45.49
36630;BME280;36256;42.154;23.002;2023-06-22T11:04:02;97394.88;;;31.87;45.74
36630;BME280;36256;42.154;23.002;2023-06-22T11:06:30;97392.56;;;31.85;48.68
36630;BME280;36256;42.154;23.002;2023-06-22T11:08:56;97392.56;;;31.85;43.17
36630;BME280;36256;42.154;23.002;2023-06-22T11:11:37;97392.56;;;31.85;48.27
36630;BME280;36256;42.154;23.002;2023-06-22T11:14:04;97395.16;;;31.98;45.83
36630;BME280;36256;42.154;23.002;2023-06-22T11:16:31;97396.38;;;31.95;45.90
36630;BME280;36256;42.154;23.002;2023-06-22T11:18:58;97391.72;;;31.92;45.62
36630;BME280;36256;42.154;23.002;2023-06-22T11:21:25;97397.66;;;32.02;44.38
36630;BME280;36256;42.154;23.002;2023-06-22T11:23:51;97389.09;;;32.04;45.12
36630;BME280;36256;42.154;23.002;2023-06-22T11:26:18;97380.47;;;32.13;45.57
36630;BME280;36256;42.154;23.002;2023-06-22T11:28:45;97388.06;;;32.09;45.60
36630;BME280;36256;42.154;23.002;2023-06-22T11:31:12;97377.91;;;32.17;46.33
36630;BME280;36256;42.154;23.002;2023-06-22T11:33:41;97376.78;;;32.13;47.01
36630;BME280;36256;42.154;23.002;2023-06-22T11:36:08;97389.00;;;32.11;47.68
36630;BME280;36256;42.154;23.002;2023-06-22T11:38:35;97393.03;;;32.16;48.22
36630;BME280;36256;42.154;23.002;2023-06-22T11:41:09;97390.38;;;32.10;46.35
36630;BME280;36256;42.154;23.002;2023-06-22T11:43:36;97398.72;;;32.23;50.13
36630;BME280;36256;42.154;23.002;2023-06-22T11:46:04;97397.88;;;32.30;48.45
36630;BME280;36256;42.154;23.002;2023-06-22T11:48:31;97392.50;;;32.27;46.74
36630;BME280;36256;42.154;23.002;2023-06-22T11:50:57;97379.44;;;32.18;43.81
36630;BME280;36256;42.154;23.002;2023-06-22T11:53:26;97381.13;;;32.21;48.13
36630;BME280;36256;42.154;23.002;2023-06-22T11:55:53;97402.47;;;32.33;49.51
36630;BME280;36256;42.154;23.002;2023-06-22T11:58:22;97382.31;;;32.35;46.20
36630;BME280;36256;42.154;23.002;2023-06-22T12:00:49;97389.31;;;32.32;47.26
36630;BME280;36256;42.154;23.002;2023-06-22T12:03:18;97380.78;;;32.34;46.56
36630;BME280;36256;42.154;23.002;2023-06-22T12:05:46;97382.31;;;32.35;43.75
36630;BME280;36256;42.154;23.002;2023-06-22T12:08:13;97380.56;;;32.23;44.72
36630;BME280;36256;42.154;23.002;2023-06-22T12:10:40;97377.91;;;32.17;48.97
36630;BME280;36256;42.154;23.002;2023-06-22T12:13:07;97376.72;;;32.20;48.02
36630;BME280;36256;42.154;23.002;2023-06-22T12:15:33;97371.22;;;32.24;47.18
36630;BME280;36256;42.154;23.002;2023-06-22T12:18:00;97377.97;;;32.27;49.32
36630;BME280;36256;42.154;23.002;2023-06-22T12:20:28;97381.63;;;32.27;50.03
36630;BME280;36256;42.154;23.002;2023-06-22T12:22:55;97364.91;;;32.35;46.88
36630;BME280;36256;42.154;23.002;2023-06-22T12:25:24;97326.19;;;32.33;42.29
36630;BME280;36256;42.154;23.002;2023-06-22T12:27:51;97361.81;;;32.33;51.82
36630;BME280;36256;42.154;23.002;2023-06-22T12:30:18;97350.91;;;32.24;47.24
36630;BME280;36256;42.154;23.002;2023-06-22T12:32:45;97342.19;;;32.24;49.34
36630;BME280;36256;42.154;23.002;2023-06-22T12:35:12;97350.75;;;32.22;46.38
36630;BME280;36256;42.154;23.002;2023-06-22T12:37:43;97348.16;;;32.26;48.47
36630;BME280;36256;42.154;23.002;2023-06-22T12:40:11;97348.78;;;32.25;47.38
36630;BME280;36256;42.154;23.002;2023-06-22T12:42:37;97343.38;;;32.21;45.91
36630;BME280;36256;42.154;23.002;2023-06-22T12:45:05;97348.53;;;32.13;45.44
36630;BME280;36256;42.154;23.002;2023-06-22T12:47:32;97339.66;;;32.11;47.57
36630;BME280;36256;42.154;23.002;2023-06-22T12:49:58;97339.13;;;32.22;46.78
36630;BME280;36256;42.154;23.002;2023-06-22T12:52:25;97336.38;;;32.24;48.54
36630;BME280;36256;42.154;23.002;2023-06-22T12:54:52;97325.44;;;32.32;46.64
36630;BME280;36256;42.154;23.002;2023-06-22T12:57:21;97326.25;;;32.42;46.95
36630;BME280;36256;42.154;23.002;2023-06-22T12:59:48;97320.44;;;32.42;45.82
36630;BME280;36256;42.154;23.002;2023-06-22T13:02:15;97315.16;;;32.48;47.08
36630;BME280;36256;42.154;23.002;2023-06-22T13:04:42;97318.38;;;32.53;47.86